| time (UTC) | temp C | wind direction | speed KPH | gust KPH | rain 1hr cm | rain 24hr cm | rain mn cm | humidity % | barometer mb |
| 20260507161706 | 28 | 87 | 3.2 | 4.8 | 0.00 | 0.00 | 0.00 | 23 | 1016.2 |
| 20260507161203 | 27 | 71 | 4.8 | 8.0 | 0.00 | 0.00 | 0.00 | 25 | 1016.3 |
| 20260507160659 | 27 | 359 | 3.2 | 6.4 | 0.00 | 0.00 | 0.00 | 24 | 1016.3 |
| 20260507160156 | 27 | 348 | 0.0 | 4.8 | 0.00 | 0.00 | 0.00 | 26 | 1016.1 |
| 20260507155651 | 27 | 172 | 1.6 | 6.4 | 0.00 | 0.00 | 0.00 | 26 | 1016.5 |
| 20260507155148 | 27 | 111 | 3.2 | 4.8 | 0.00 | 0.00 | 0.00 | 29 | 1016.4 |
| 20260507154644 | 26 | 12 | 3.2 | 8.0 | 0.00 | 0.00 | 0.00 | 26 | 1016.4 |
| 20260507154143 | 26 | 58 | 0.0 | 8.0 | 0.00 | 0.00 | 0.00 | 28 | 1016.3 |
| 20260507153639 | 26 | 82 | 4.8 | 9.7 | 0.00 | 0.00 | 0.00 | 26 | 1016.8 |
| 20260507153135 | 26 | 359 | 0.0 | 4.8 | 0.00 | 0.00 | 0.00 | 26 | 1016.5 |
| 20260507152631 | 26 | 85 | 3.2 | 6.4 | 0.00 | 0.00 | 0.00 | 28 | 1016.5 |
| 20260507152127 | 25 | 336 | 0.0 | 3.2 | 0.00 | 0.00 | 0.00 | 28 | 1016.5 |
| 20260507151624 | 25 | 140 | 3.2 | 6.4 | 0.00 | 0.00 | 0.00 | 29 | 1016.7 |
| 20260507151121 | 25 | 89 | 3.2 | 8.0 | 0.00 | 0.00 | 0.00 | 28 | 1016.6 |
| 20260507150618 | 24 | 82 | 0.0 | 4.8 | 0.00 | 0.00 | 0.00 | 32 | 1016.7 |
| 20260507150114 | 23 | 185 | 1.6 | 4.8 | 0.00 | 0.00 | 0.00 | 32 | 1016.5 |
| 20260507145609 | 23 | 135 | 3.2 | 6.4 | 0.00 | 0.00 | 0.00 | 31 | 1016.6 |
| 20260507145107 | 24 | 173 | 0.0 | 6.4 | 0.00 | 0.00 | 0.00 | 34 | 1016.3 |
| 20260507144603 | 23 | 218 | 0.0 | 1.6 | 0.00 | 0.00 | 0.00 | 32 | 1016.2 |
| 20260507144101 | 23 | 23 | 1.6 | 4.8 | 0.00 | 0.00 | 0.00 | 32 | 1016.5 |
| 20260507143558 | 25 | 13 | 0.0 | 1.6 | 0.00 | 0.00 | 0.00 | 29 | 1016.4 |
| 20260507143055 | 23 | 37 | 0.0 | 1.6 | 0.00 | 0.00 | 0.00 | 32 | 1016.6 |
| 20260507142555 | 22 | 230 | 0.0 | 1.6 | 0.00 | 0.00 | 0.00 | 33 | 1016.4 |
| 20260507142053 | 22 | 269 | 0.0 | 3.2 | 0.00 | 0.00 | 0.00 | 37 | 1016.4 |
| 20260507141548 | 23 | 135 | 0.0 | 0.0 | 0.00 | 0.00 | 0.00 | 33 | 1016.4 |
| 20260507141045 | 22 | 135 | 0.0 | 3.2 | 0.00 | 0.00 | 0.00 | 31 | 1016.3 |
| 20260507140542 | 21 | 180 | 0.0 | 1.6 | 0.00 | 0.00 | 0.00 | 34 | 1016.4 |
| 20260507140040 | 21 | 139 | 3.2 | 4.8 | 0.00 | 0.00 | 0.00 | 35 | 1016.3 |
| 20260507135536 | 21 | 255 | 0.0 | 3.2 | 0.00 | 0.00 | 0.00 | 37 | 1016.1 |
| 20260507135034 | 21 | 49 | 0.0 | 1.6 | 0.00 | 0.00 | 0.00 | 36 | 1016.3 |
| 20260507134530 | 21 | 80 | 0.0 | 4.8 | 0.00 | 0.00 | 0.00 | 33 | 1016.1 |
| 20260507134026 | 20 | 67 | 1.6 | 3.2 | 0.00 | 0.00 | 0.00 | 37 | 1016.2 |
| 20260507133522 | 19 | 6 | 1.6 | 6.4 | 0.00 | 0.00 | 0.00 | 38 | 1015.7 |
| 20260507133021 | 18 | 324 | 0.0 | 4.8 | 0.00 | 0.00 | 0.00 | 40 | 1016.1 |
| 20260507132517 | 18 | 304 | 0.0 | 4.8 | 0.00 | 0.00 | 0.00 | 42 | 1016.0 |
| 20260507132013 | 17 | 275 | 0.0 | 4.8 | 0.00 | 0.00 | 0.00 | 43 | 1016.1 |
| 20260507131510 | 17 | 83 | 1.6 | 4.8 | 0.00 | 0.00 | 0.00 | 45 | 1016.0 |
| 20260507131007 | 16 | 269 | 0.0 | 6.4 | 0.00 | 0.00 | 0.00 | 48 | 1016.2 |
| 20260507130504 | 15 | 35 | 3.2 | 6.4 | 0.00 | 0.00 | 0.00 | 51 | 1016.0 |
| 20260507130003 | 15 | 33 | 1.6 | 3.2 | 0.00 | 0.00 | 0.00 | 54 | 1016.0 |
| 20260507125501 | 14 | 96 | 3.2 | 4.8 | 0.00 | 0.00 | 0.00 | 55 | 1016.3 |
| 20260507124957 | 14 | 110 | 3.2 | 4.8 | 0.00 | 0.00 | 0.00 | 55 | 1016.0 |
| 20260507124454 | 14 | 91 | 3.2 | 4.8 | 0.00 | 0.00 | 0.00 | 56 | 1016.1 |
| 20260507123952 | 13 | 89 | 1.6 | 3.2 | 0.00 | 0.00 | 0.00 | 56 | 1016.0 |
| 20260507123449 | 14 | 111 | 0.0 | 3.2 | 0.00 | 0.00 | 0.00 | 57 | 1015.8 |
| 20260507122945 | 15 | 63 | 1.6 | 3.2 | 0.00 | 0.00 | 0.00 | 57 | 1015.8 |
| 20260507122441 | 14 | 147 | 0.0 | 3.2 | 0.00 | 0.00 | 0.00 | 59 | 1016.2 |
| 20260507121937 | 13 | 113 | 0.0 | 3.2 | 0.00 | 0.00 | 0.00 | 58 | 1016.0 |
| 20260507121432 | 14 | 98 | 0.0 | 3.2 | 0.00 | 0.00 | 0.00 | 56 | 1016.0 |
| 20260507120930 | 14 | 35 | 1.6 | 4.8 | 0.00 | 0.00 | 0.00 | 56 | 1015.7 |
| 20260507120426 | 14 | 37 | 0.0 | 3.2 | 0.00 | 0.00 | 0.00 | 56 | 1015.7 |
| 20260507115922 | 15 | 96 | 3.2 | 4.8 | 0.00 | 0.00 | 0.00 | 54 | 1015.8 |
| 20260507115418 | 15 | 81 | 3.2 | 4.8 | 0.00 | 0.00 | 0.00 | 54 | 1016.2 |
| 20260507114914 | 15 | 80 | 3.2 | 4.8 | 0.00 | 0.00 | 0.00 | 53 | 1015.8 |
| 20260507114411 | 15 | 85 | 3.2 | 4.8 | 0.00 | 0.00 | 0.00 | 52 | 1015.8 |
| 20260507113908 | 13 | 98 | 1.6 | 4.8 | 0.00 | 0.00 | 0.00 | 56 | 1016.0 |
| 20260507113406 | 14 | 88 | 1.6 | 3.2 | 0.00 | 0.00 | 0.00 | 53 | 1015.7 |
| 20260507112903 | 15 | 110 | 3.2 | 4.8 | 0.00 | 0.00 | 0.00 | 54 | 1015.8 |
| 20260507112400 | 14 | 93 | 1.6 | 3.2 | 0.00 | 0.00 | 0.00 | 55 | 1016.1 |
| 20260507111857 | 14 | 106 | 0.0 | 3.2 | 0.00 | 0.00 | 0.00 | 55 | 1016.2 |
| 20260507111354 | 15 | 61 | 3.2 | 3.2 | 0.00 | 0.00 | 0.00 | 54 | 1015.8 |
| 20260507110850 | 15 | 101 | 1.6 | 3.2 | 0.00 | 0.00 | 0.00 | 52 | 1015.8 |
| 20260507110346 | 15 | 163 | 0.0 | 3.2 | 0.00 | 0.00 | 0.00 | 51 | 1015.8 |
| 20260507105844 | 15 | 57 | 0.0 | 3.2 | 0.00 | 0.00 | 0.00 | 49 | 1016.1 |
| 20260507105340 | 15 | 95 | 3.2 | 4.8 | 0.00 | 0.00 | 0.00 | 49 | 1015.8 |
| 20260507104837 | 16 | 52 | 3.2 | 3.2 | 0.00 | 0.00 | 0.00 | 49 | 1015.8 |
| 20260507104334 | 16 | 19 | 3.2 | 4.8 | 0.00 | 0.00 | 0.00 | 47 | 1016.0 |
| 20260507103829 | 15 | 48 | 1.6 | 3.2 | 0.00 | 0.00 | 0.00 | 48 | 1016.0 |
| 20260507103326 | 15 | 86 | 3.2 | 4.8 | 0.00 | 0.00 | 0.00 | 49 | 1016.2 |
| 20260507102822 | 15 | 95 | 3.2 | 4.8 | 0.00 | 0.00 | 0.00 | 50 | 1016.2 |
| 20260507102319 | 15 | 111 | 0.0 | 3.2 | 0.00 | 0.00 | 0.00 | 50 | 1016.1 |
| 20260507101816 | 15 | 6 | 0.0 | 1.6 | 0.00 | 0.00 | 0.00 | 48 | 1016.3 |
| 20260507101315 | 16 | 76 | 1.6 | 3.2 | 0.00 | 0.00 | 0.00 | 47 | 1016.5 |
| 20260507100813 | 16 | 32 | 1.6 | 3.2 | 0.00 | 0.00 | 0.00 | 46 | 1016.3 |
| 20260507100311 | 16 | 100 | 0.0 | 3.2 | 0.00 | 0.00 | 0.00 | 46 | 1016.3 |
| 20260507095809 | 17 | 38 | 1.6 | 4.8 | 0.00 | 0.00 | 0.00 | 44 | 1016.6 |
| 20260507095306 | 16 | 27 | 1.6 | 3.2 | 0.00 | 0.00 | 0.00 | 44 | 1016.4 |
| 20260507094802 | 16 | 35 | 0.0 | 4.8 | 0.00 | 0.00 | 0.00 | 46 | 1016.4 |
| 20260507094259 | 16 | 124 | 0.0 | 3.2 | 0.00 | 0.00 | 0.00 | 46 | 1016.6 |
| 20260507093756 | 16 | 33 | 1.6 | 3.2 | 0.00 | 0.00 | 0.00 | 45 | 1016.4 |
| 20260507093254 | 16 | 34 | 3.2 | 4.8 | 0.00 | 0.00 | 0.00 | 44 | 1016.5 |
| 20260507092752 | 16 | 49 | 1.6 | 3.2 | 0.00 | 0.00 | 0.00 | 43 | 1016.5 |
| 20260507092247 | 17 | 52 | 1.6 | 3.2 | 0.00 | 0.00 | 0.00 | 43 | 1016.5 |
| 20260507091744 | 17 | 129 | 0.0 | 3.2 | 0.00 | 0.00 | 0.00 | 42 | 1016.5 |
| 20260507091241 | 17 | 98 | 3.2 | 4.8 | 0.00 | 0.00 | 0.00 | 40 | 1016.4 |
| 20260507090736 | 17 | 50 | 1.6 | 3.2 | 0.00 | 0.00 | 0.00 | 40 | 1016.5 |
| 20260507090233 | 17 | 61 | 3.2 | 4.8 | 0.00 | 0.00 | 0.00 | 39 | 1016.5 |
| 20260507085730 | 17 | 34 | 0.0 | 3.2 | 0.00 | 0.00 | 0.00 | 40 | 1016.6 |
| 20260507085227 | 18 | 102 | 0.0 | 1.6 | 0.00 | 0.00 | 0.00 | 40 | 1016.6 |
| 20260507084724 | 19 | 79 | 1.6 | 4.8 | 0.00 | 0.00 | 0.00 | 37 | 1016.6 |
| 20260507084220 | 19 | 95 | 3.2 | 3.2 | 0.00 | 0.00 | 0.00 | 37 | 1016.5 |
| 20260507083718 | 18 | 71 | 1.6 | 4.8 | 0.00 | 0.00 | 0.00 | 36 | 1016.5 |
| 20260507083214 | 18 | 33 | 1.6 | 3.2 | 0.00 | 0.00 | 0.00 | 37 | 1016.5 |
| 20260507082710 | 19 | 41 | 0.0 | 4.8 | 0.00 | 0.00 | 0.00 | 37 | 1016.7 |
| 20260507082206 | 19 | 33 | 1.6 | 6.4 | 0.00 | 0.00 | 0.00 | 36 | 1016.7 |
| 20260507081703 | 17 | 82 | 3.2 | 4.8 | 0.00 | 0.00 | 0.00 | 40 | 1016.6 |
| 20260507081159 | 17 | 66 | 1.6 | 3.2 | 0.00 | 0.00 | 0.00 | 45 | 1016.9 |
| 20260507080656 | 17 | 62 | 1.6 | 3.2 | 0.00 | 0.00 | 0.00 | 44 | 1016.8 |
| 20260507080153 | 16 | 87 | 3.2 | 3.2 | 0.00 | 0.00 | 0.00 | 47 | 1016.7 |
| 20260507075648 | 17 | 94 | 1.6 | 3.2 | 0.00 | 0.00 | 0.00 | 44 | 1016.7 |
| 20260507075144 | 17 | 89 | 0.0 | 4.8 | 0.00 | 0.00 | 0.00 | 44 | 1016.9 |
| 20260507074641 | 17 | 50 | 0.0 | 3.2 | 0.00 | 0.00 | 0.00 | 42 | 1017.0 |
| 20260507074139 | 17 | 61 | 1.6 | 4.8 | 0.00 | 0.00 | 0.00 | 42 | 1016.8 |
| 20260507073635 | 17 | 89 | 1.6 | 4.8 | 0.00 | 0.00 | 0.00 | 43 | 1016.7 |
| 20260507073131 | 17 | 73 | 3.2 | 3.2 | 0.00 | 0.00 | 0.00 | 42 | 1016.9 |
| 20260507072630 | 17 | 66 | 0.0 | 3.2 | 0.00 | 0.00 | 0.00 | 41 | 1017.0 |
| 20260507072127 | 17 | 140 | 0.0 | 3.2 | 0.00 | 0.00 | 0.00 | 39 | 1016.7 |
| 20260507071624 | 18 | 122 | 0.0 | 3.2 | 0.00 | 0.00 | 0.00 | 38 | 1016.8 |
| 20260507071120 | 18 | 104 | 1.6 | 4.8 | 0.00 | 0.00 | 0.00 | 40 | 1016.7 |
| 20260507070617 | 18 | 48 | 1.6 | 3.2 | 0.00 | 0.00 | 0.00 | 37 | 1016.8 |
| 20260507070114 | 18 | 49 | 0.0 | 1.6 | 0.00 | 0.00 | 0.00 | 36 | 1016.8 |
| 20260507065611 | 18 | 157 | 1.6 | 3.2 | 0.00 | 0.00 | 0.00 | 36 | 1016.8 |
| 20260507065108 | 19 | 95 | 1.6 | 3.2 | 0.00 | 0.00 | 0.00 | 35 | 1016.7 |
| 20260507064605 | 20 | 77 | 3.2 | 4.8 | 0.00 | 0.00 | 0.00 | 35 | 1016.7 |
| 20260507064104 | 18 | 131 | 0.0 | 3.2 | 0.00 | 0.00 | 0.00 | 41 | 1016.6 |
| 20260507063601 | 18 | 26 | 3.2 | 4.8 | 0.00 | 0.00 | 0.00 | 42 | 1016.9 |
| 20260507063058 | 18 | 23 | 0.0 | 3.2 | 0.00 | 0.00 | 0.00 | 42 | 1016.6 |
| 20260507062554 | 18 | 30 | 0.0 | 3.2 | 0.00 | 0.00 | 0.00 | 42 | 1016.8 |
| 20260507062052 | 18 | 50 | 0.0 | 3.2 | 0.00 | 0.00 | 0.00 | 42 | 1016.7 |
| 20260507061550 | 18 | 87 | 0.0 | 3.2 | 0.00 | 0.00 | 0.00 | 42 | 1016.7 |
| 20260507061048 | 18 | 84 | 1.6 | 3.2 | 0.00 | 0.00 | 0.00 | 44 | 1016.7 |
| 20260507060545 | 18 | 60 | 0.0 | 3.2 | 0.00 | 0.00 | 0.00 | 43 | 1016.9 |
| 20260507060042 | 18 | 67 | 1.6 | 3.2 | 0.00 | 0.00 | 0.00 | 42 | 1016.8 |
| 20260507055542 | 18 | 50 | 1.6 | 3.2 | 0.00 | 0.00 | 0.00 | 42 | 1016.7 |
| 20260507055039 | 18 | 40 | 0.0 | 3.2 | 0.00 | 0.00 | 0.00 | 43 | 1016.8 |
| 20260507054535 | 18 | 111 | 0.0 | 3.2 | 0.00 | 0.00 | 0.00 | 42 | 1016.7 |
| 20260507054032 | 18 | 34 | 0.0 | 3.2 | 0.00 | 0.00 | 0.00 | 42 | 1016.8 |
| 20260507053530 | 18 | 40 | 1.6 | 3.2 | 0.00 | 0.00 | 0.00 | 42 | 1017.1 |
| 20260507053029 | 18 | 129 | 0.0 | 1.6 | 0.00 | 0.00 | 0.00 | 40 | 1016.9 |
| 20260507052526 | 18 | 129 | 0.0 | 3.2 | 0.00 | 0.00 | 0.00 | 40 | 1016.7 |
| 20260507052022 | 19 | 89 | 1.6 | 3.2 | 0.00 | 0.00 | 0.00 | 39 | 1017.0 |
| 20260507051520 | 18 | 61 | 0.0 | 1.6 | 0.00 | 0.00 | 0.00 | 40 | 1016.9 |
| 20260507051017 | 18 | 53 | 0.0 | 3.2 | 0.00 | 0.00 | 0.00 | 40 | 1016.7 |
| 20260507050513 | 19 | 32 | 0.0 | 3.2 | 0.00 | 0.00 | 0.00 | 40 | 1016.8 |
| 20260507050010 | 19 | 48 | 0.0 | 3.2 | 0.00 | 0.00 | 0.00 | 39 | 1016.6 |
| 20260507045507 | 20 | 98 | 0.0 | 3.2 | 0.00 | 0.00 | 0.00 | 38 | 1016.6 |
| 20260507045004 | 20 | 37 | 1.6 | 3.2 | 0.00 | 0.00 | 0.00 | 38 | 1016.8 |
| 20260507044501 | 20 | 55 | 0.0 | 3.2 | 0.00 | 0.00 | 0.00 | 37 | 1016.8 |
| 20260507043957 | 20 | 27 | 1.6 | 3.2 | 0.00 | 0.00 | 0.00 | 37 | 1016.5 |
| 20260507043453 | 20 | 113 | 0.0 | 3.2 | 0.00 | 0.00 | 0.00 | 37 | 1016.6 |
| 20260507042949 | 20 | 49 | 1.6 | 3.2 | 0.00 | 0.00 | 0.00 | 38 | 1016.6 |
| 20260507042446 | 20 | 157 | 0.0 | 1.6 | 0.00 | 0.00 | 0.00 | 37 | 1016.6 |
| 20260507041942 | 20 | 113 | 0.0 | 0.0 | 0.00 | 0.00 | 0.00 | 36 | 1016.4 |
| 20260507041439 | 20 | 89 | 0.0 | 1.6 | 0.00 | 0.00 | 0.00 | 36 | 1016.3 |
| 20260507040936 | 20 | 54 | 1.6 | 3.2 | 0.00 | 0.00 | 0.00 | 37 | 1016.3 |
| 20260507040432 | 20 | 23 | 0.0 | 3.2 | 0.00 | 0.00 | 0.00 | 37 | 1016.2 |
| 20260507035928 | 20 | 32 | 0.0 | 1.6 | 0.00 | 0.00 | 0.00 | 35 | 1016.3 |
| 20260507035425 | 20 | 130 | 0.0 | 3.2 | 0.00 | 0.00 | 0.00 | 35 | 1016.3 |
| 20260507034922 | 21 | 147 | 0.0 | 1.6 | 0.00 | 0.00 | 0.00 | 34 | 1016.0 |
| 20260507034419 | 21 | 37 | 0.0 | 1.6 | 0.00 | 0.00 | 0.00 | 34 | 1016.2 |
| 20260507033917 | 21 | 47 | 1.6 | 1.6 | 0.00 | 0.00 | 0.00 | 33 | 1016.0 |
| 20260507033414 | 21 | 57 | 0.0 | 3.2 | 0.00 | 0.00 | 0.00 | 32 | 1016.0 |
| 20260507032911 | 21 | 44 | 0.0 | 3.2 | 0.00 | 0.00 | 0.00 | 32 | 1015.8 |
| 20260507032408 | 21 | 142 | 0.0 | 1.6 | 0.00 | 0.00 | 0.00 | 33 | 1015.8 |
| 20260507031904 | 21 | 129 | 0.0 | 1.6 | 0.00 | 0.00 | 0.00 | 33 | 1016.2 |
| 20260507031401 | 22 | 186 | 0.0 | 0.0 | 0.00 | 0.00 | 0.00 | 31 | 1016.0 |
| 20260507030857 | 22 | 147 | 0.0 | 0.0 | 0.00 | 0.00 | 0.00 | 31 | 1015.5 |
| 20260507030355 | 22 | 147 | 0.0 | 0.0 | 0.00 | 0.00 | 0.00 | 30 | 1015.4 |
| 20260507025851 | 22 | 37 | 0.0 | 1.6 | 0.00 | 0.00 | 0.00 | 28 | 1015.6 |
| 20260507025349 | 23 | 44 | 0.0 | 1.6 | 0.00 | 0.00 | 0.00 | 28 | 1015.4 |
| 20260507024847 | 24 | 78 | 0.0 | 1.6 | 0.00 | 0.00 | 0.00 | 26 | 1015.3 |
| 20260507024344 | 24 | 130 | 0.0 | 1.6 | 0.00 | 0.00 | 0.00 | 25 | 1015.5 |
| 20260507023839 | 25 | 37 | 0.0 | 1.6 | 0.00 | 0.00 | 0.00 | 25 | 1015.2 |
| 20260507023337 | 25 | 15 | 0.0 | 3.2 | 0.00 | 0.00 | 0.00 | 24 | 1015.4 |
| 20260507022834 | 26 | 343 | 1.6 | 4.8 | 0.00 | 0.00 | 0.00 | 23 | 1015.1 |
| 20260507022330 | 26 | 355 | 1.6 | 3.2 | 0.00 | 0.00 | 0.00 | 24 | 1015.3 |
| 20260507021826 | 26 | 331 | 4.8 | 9.7 | 0.00 | 0.00 | 0.00 | 23 | 1015.2 |
| 20260507021322 | 25 | 358 | 0.0 | 3.2 | 0.00 | 0.00 | 0.00 | 24 | 1015.2 |
| 20260507020820 | 26 | 195 | 3.2 | 4.8 | 0.00 | 0.00 | 0.00 | 24 | 1014.9 |
| 20260507020316 | 26 | 185 | 3.2 | 4.8 | 0.00 | 0.00 | 0.00 | 22 | 1015.0 |
| 20260507015813 | 26 | 89 | 0.0 | 1.6 | 0.00 | 0.00 | 0.00 | 23 | 1015.0 |
| 20260507015311 | 26 | 160 | 0.0 | 1.6 | 0.00 | 0.00 | 0.00 | 23 | 1014.9 |
| 20260507014807 | 26 | 37 | 0.0 | 3.2 | 0.00 | 0.00 | 0.00 | 23 | 1014.8 |
| 20260507014304 | 26 | 225 | 6.4 | 9.7 | 0.00 | 0.00 | 0.00 | 21 | 1015.0 |
| 20260507013800 | 27 | 275 | 3.2 | 11.3 | 0.00 | 0.00 | 0.00 | 21 | 1014.9 |
| 20260507013258 | 27 | 249 | 4.8 | 6.4 | 0.00 | 0.00 | 0.00 | 21 | 1014.8 |
| 20260507012755 | 27 | 235 | 3.2 | 6.4 | 0.00 | 0.00 | 0.00 | 22 | 1015.0 |
| 20260507012250 | 27 | 181 | 1.6 | 6.4 | 0.00 | 0.00 | 0.00 | 22 | 1014.9 |
| 20260507011748 | 27 | 217 | 0.0 | 4.8 | 0.00 | 0.00 | 0.00 | 21 | 1015.1 |
| 20260507011244 | 27 | 168 | 0.0 | 6.4 | 0.00 | 0.00 | 0.00 | 20 | 1015.1 |
| 20260507010744 | 27 | 284 | 0.0 | 4.8 | 0.00 | 0.00 | 0.00 | 20 | 1014.8 |
| 20260507010240 | 28 | 189 | 3.2 | 8.0 | 0.00 | 0.00 | 0.00 | 21 | 1015.1 |
| 20260507005738 | 28 | 200 | 1.6 | 9.7 | 0.00 | 0.00 | 0.00 | 21 | 1014.7 |
| 20260507005234 | 28 | 203 | 1.6 | 4.8 | 0.00 | 0.00 | 0.00 | 19 | 1014.6 |
| 20260507004731 | 28 | 83 | 4.8 | 6.4 | 0.00 | 0.00 | 0.00 | 19 | 1014.8 |
| 20260507004229 | 29 | 237 | 3.2 | 4.8 | 0.00 | 0.00 | 0.00 | 19 | 1014.9 |
| 20260507003724 | 28 | 238 | 1.6 | 6.4 | 0.00 | 0.00 | 0.00 | 20 | 1014.8 |
| 20260507003220 | 28 | 326 | 6.4 | 12.9 | 0.00 | 0.00 | 0.00 | 20 | 1015.2 |
| 20260507002716 | 29 | 246 | 1.6 | 4.8 | 0.00 | 0.00 | 0.00 | 21 | 1014.8 |
| 20260507002212 | 28 | 307 | 1.6 | 6.4 | 0.00 | 0.00 | 0.00 | 19 | 1014.9 |
| 20260507001709 | 28 | 336 | 3.2 | 8.0 | 0.00 | 0.00 | 0.00 | 20 | 1014.7 |
| 20260507001206 | 28 | 352 | 4.8 | 11.3 | 0.00 | 0.00 | 0.00 | 20 | 1014.7 |
| 20260507000702 | 28 | 338 | 6.4 | 8.0 | 0.00 | 0.00 | 0.00 | 20 | 1015.0 |
| 20260507000158 | 28 | 2 | 3.2 | 12.9 | 0.00 | 0.00 | 0.00 | 20 | 1014.9 |
| 20260506235656 | 29 | 319 | 8.0 | 9.7 | 0.00 | 0.00 | 0.00 | 20 | 1014.9 |
| 20260506235151 | 28 | 339 | 3.2 | 11.3 | 0.00 | 0.00 | 0.00 | 21 | 1015.0 |
| 20260506234648 | 28 | 121 | 4.8 | 8.0 | 0.00 | 0.00 | 0.00 | 22 | 1014.8 |
| 20260506234145 | 29 | 212 | 0.0 | 6.4 | 0.00 | 0.00 | 0.00 | 20 | 1014.9 |
| 20260506233642 | 28 | 246 | 0.0 | 4.8 | 0.00 | 0.00 | 0.00 | 20 | 1014.9 |
| 20260506233139 | 28 | 184 | 0.0 | 8.0 | 0.00 | 0.00 | 0.00 | 24 | 1015.1 |
| 20260506232635 | 27 | 74 | 6.4 | 12.9 | 0.00 | 0.00 | 0.00 | 20 | 1014.9 |
| 20260506232131 | 28 | 225 | 4.8 | 11.3 | 0.00 | 0.00 | 0.00 | 23 | 1015.3 |
| 20260506231628 | 28 | 0 | 4.8 | 9.7 | 0.00 | 0.00 | 0.00 | 20 | 1015.3 |
| 20260506231126 | 28 | 214 | 0.0 | 9.7 | 0.00 | 0.00 | 0.00 | 20 | 1015.2 |
| 20260506230623 | 28 | 346 | 3.2 | 8.0 | 0.00 | 0.00 | 0.00 | 21 | 1015.3 |
| 20260506230120 | 28 | 327 | 9.7 | 12.9 | 0.00 | 0.00 | 0.00 | 21 | 1015.4 |
| 20260506225616 | 28 | 304 | 11.3 | 12.9 | 0.00 | 0.00 | 0.00 | 20 | 1015.4 |
| 20260506225113 | 28 | 354 | 4.8 | 9.7 | 0.00 | 0.00 | 0.00 | 22 | 1015.4 |
| 20260506224610 | 28 | 248 | 3.2 | 19.3 | 0.00 | 0.00 | 0.00 | 21 | 1015.5 |
| 20260506224107 | 28 | 332 | 3.2 | 11.3 | 0.00 | 0.00 | 0.00 | 20 | 1015.6 |
| 20260506223603 | 29 | 206 | 1.6 | 8.0 | 0.00 | 0.00 | 0.00 | 22 | 1015.6 |
| 20260506223059 | 28 | 284 | 1.6 | 8.0 | 0.00 | 0.00 | 0.00 | 21 | 1015.5 |
| 20260506222556 | 28 | 278 | 1.6 | 8.0 | 0.00 | 0.00 | 0.00 | 24 | 1015.8 |
| 20260506222052 | 27 | 252 | 9.7 | 14.5 | 0.00 | 0.00 | 0.00 | 21 | 1015.8 |
| 20260506221550 | 27 | 263 | 4.8 | 9.7 | 0.00 | 0.00 | 0.00 | 21 | 1015.7 |
| 20260506221048 | 27 | 0 | 3.2 | 4.8 | 0.00 | 0.00 | 0.00 | 22 | 1015.8 |
| 20260506220543 | 27 | 22 | 4.8 | 12.9 | 0.00 | 0.00 | 0.00 | 21 | 1016.1 |
| 20260506220039 | 28 | 3 | 4.8 | 11.3 | 0.00 | 0.00 | 0.00 | 21 | 1016.0 |
| 20260506215536 | 28 | 302 | 3.2 | 4.8 | 0.00 | 0.00 | 0.00 | 22 | 1016.2 |
| 20260506215032 | 27 | 330 | 9.7 | 14.5 | 0.00 | 0.00 | 0.00 | 21 | 1016.2 |
| 20260506214529 | 28 | 315 | 8.0 | 22.5 | 0.00 | 0.00 | 0.00 | 22 | 1016.2 |
| 20260506214026 | 27 | 291 | 4.8 | 11.3 | 0.00 | 0.00 | 0.00 | 21 | 1016.6 |
| 20260506213524 | 27 | 330 | 3.2 | 8.0 | 0.00 | 0.00 | 0.00 | 21 | 1016.7 |
| 20260506213021 | 27 | 88 | 4.8 | 12.9 | 0.00 | 0.00 | 0.00 | 22 | 1016.4 |
| 20260506212518 | 27 | 76 | 8.0 | 14.5 | 0.00 | 0.00 | 0.00 | 21 | 1016.6 |
| 20260506212013 | 27 | 56 | 4.8 | 8.0 | 0.00 | 0.00 | 0.00 | 23 | 1016.8 |
| 20260506211509 | 27 | 332 | 4.8 | 9.7 | 0.00 | 0.00 | 0.00 | 22 | 1016.9 |
| 20260506211006 | 27 | 320 | 6.4 | 12.9 | 0.00 | 0.00 | 0.00 | 23 | 1016.8 |
| 20260506210502 | 27 | 271 | 8.0 | 14.5 | 0.00 | 0.00 | 0.00 | 22 | 1016.9 |
| 20260506205959 | 27 | 355 | 4.8 | 12.9 | 0.00 | 0.00 | 0.00 | 23 | 1017.1 |
| 20260506205455 | 27 | 0 | 4.8 | 14.5 | 0.00 | 0.00 | 0.00 | 23 | 1017.1 |
| 20260506204951 | 27 | 324 | 8.0 | 11.3 | 0.00 | 0.00 | 0.00 | 22 | 1017.0 |
| 20260506204449 | 27 | 320 | 14.5 | 17.7 | 0.00 | 0.00 | 0.00 | 22 | 1017.2 |
| 20260506203947 | 27 | 188 | 3.2 | 8.0 | 0.00 | 0.00 | 0.00 | 22 | 1017.1 |
| 20260506203443 | 27 | 301 | 6.4 | 12.9 | 0.00 | 0.00 | 0.00 | 22 | 1017.1 |
| 20260506202940 | 27 | 259 | 1.6 | 6.4 | 0.00 | 0.00 | 0.00 | 24 | 1017.1 |
| 20260506202438 | 26 | 340 | 8.0 | 12.9 | 0.00 | 0.00 | 0.00 | 24 | 1017.2 |
| 20260506201934 | 26 | 313 | 6.4 | 11.3 | 0.00 | 0.00 | 0.00 | 22 | 1017.5 |
| 20260506201432 | 27 | 337 | 8.0 | 11.3 | 0.00 | 0.00 | 0.00 | 26 | 1017.4 |
| 20260506200928 | 26 | 313 | 9.7 | 12.9 | 0.00 | 0.00 | 0.00 | 23 | 1017.5 |
| 20260506200425 | 26 | 255 | 3.2 | 4.8 | 0.00 | 0.00 | 0.00 | 23 | 1017.5 |
| 20260506195921 | 26 | 231 | 1.6 | 4.8 | 0.00 | 0.00 | 0.00 | 27 | 1017.6 |
| 20260506195418 | 26 | 70 | 0.0 | 4.8 | 0.00 | 0.00 | 0.00 | 24 | 1017.5 |
| 20260506194915 | 26 | 130 | 3.2 | 9.7 | 0.00 | 0.00 | 0.00 | 26 | 1017.7 |
| 20260506194412 | 25 | 228 | 1.6 | 9.7 | 0.00 | 0.00 | 0.00 | 23 | 1017.9 |
| 20260506193909 | 26 | 5 | 8.0 | 14.5 | 0.00 | 0.00 | 0.00 | 24 | 1017.7 |
| 20260506193406 | 26 | 218 | 3.2 | 6.4 | 0.00 | 0.00 | 0.00 | 26 | 1017.9 |
| 20260506192902 | 25 | 113 | 6.4 | 8.0 | 0.00 | 0.00 | 0.00 | 26 | 1017.8 |
| 20260506192359 | 25 | 333 | 8.0 | 17.7 | 0.00 | 0.00 | 0.00 | 25 | 1018.0 |
| 20260506191856 | 26 | 340 | 3.2 | 11.3 | 0.00 | 0.00 | 0.00 | 26 | 1017.8 |
| 20260506191352 | 25 | 40 | 1.6 | 6.4 | 0.00 | 0.00 | 0.00 | 24 | 1017.9 |
| 20260506190849 | 25 | 86 | 4.8 | 9.7 | 0.00 | 0.00 | 0.00 | 24 | 1018.1 |
| 20260506190345 | 26 | 11 | 8.0 | 11.3 | 0.00 | 0.00 | 0.00 | 24 | 1018.2 |
| 20260506185843 | 25 | 62 | 1.6 | 6.4 | 0.00 | 0.00 | 0.00 | 28 | 1018.3 |
| 20260506185340 | 25 | 331 | 3.2 | 12.9 | 0.00 | 0.00 | 0.00 | 25 | 1018.3 |
| 20260506184836 | 25 | 346 | 6.4 | 12.9 | 0.00 | 0.00 | 0.00 | 26 | 1018.3 |
| 20260506184334 | 25 | 343 | 6.4 | 12.9 | 0.00 | 0.00 | 0.00 | 26 | 1018.2 |
| 20260506183831 | 25 | 317 | 0.0 | 11.3 | 0.00 | 0.00 | 0.00 | 25 | 1018.3 |
| 20260506183326 | 25 | 204 | 0.0 | 11.3 | 0.00 | 0.00 | 0.00 | 26 | 1018.7 |
| 20260506182824 | 25 | 71 | 0.0 | 11.3 | 0.00 | 0.00 | 0.00 | 27 | 1018.9 |
| 20260506182321 | 25 | 253 | 4.8 | 11.3 | 0.00 | 0.00 | 0.00 | 28 | 1018.6 |
| 20260506181819 | 25 | 337 | 0.0 | 8.0 | 0.00 | 0.00 | 0.00 | 27 | 1018.5 |
| 20260506181316 | 25 | 142 | 4.8 | 11.3 | 0.00 | 0.00 | 0.00 | 27 | 1018.9 |
| 20260506180813 | 24 | 177 | 1.6 | 6.4 | 0.00 | 0.00 | 0.00 | 32 | 1018.9 |
| 20260506180309 | 24 | 75 | 4.8 | 6.4 | 0.00 | 0.00 | 0.00 | 28 | 1018.7 |
| 20260506175806 | 24 | 204 | 0.0 | 11.3 | 0.00 | 0.00 | 0.00 | 31 | 1018.9 |
| 20260506175306 | 23 | 218 | 4.8 | 9.7 | 0.00 | 0.00 | 0.00 | 31 | 1019.0 |
| 20260506174800 | 23 | 167 | 4.8 | 6.4 | 0.00 | 0.00 | 0.00 | 33 | 1019.1 |
| 20260506174257 | 23 | 152 | 3.2 | 4.8 | 0.00 | 0.00 | 0.00 | 31 | 1019.0 |
| 20260506173749 | 23 | 233 | 6.4 | 11.3 | 0.00 | 0.00 | 0.00 | 32 | 1019.1 |
| 20260506173246 | 23 | 20 | 3.2 | 11.3 | 0.00 | 0.00 | 0.00 | 31 | 1019.1 |
| 20260506172743 | 23 | 230 | 8.0 | 14.5 | 0.00 | 0.00 | 0.00 | 32 | 1018.9 |
| 20260506172239 | 23 | 261 | 6.4 | 9.7 | 0.00 | 0.00 | 0.00 | 32 | 1019.0 |
| 20260506171737 | 23 | 55 | 1.6 | 6.4 | 0.00 | 0.00 | 0.00 | 31 | 1019.0 |
| 20260506171234 | 23 | 238 | 3.2 | 6.4 | 0.00 | 0.00 | 0.00 | 31 | 1019.0 |
| 20260506170732 | 22 | 324 | 1.6 | 8.0 | 0.00 | 0.00 | 0.00 | 32 | 1018.7 |
| 20260506170228 | 23 | 258 | 6.4 | 9.7 | 0.00 | 0.00 | 0.00 | 31 | 1018.7 |
| 20260506165727 | 23 | 353 | 4.8 | 4.8 | 0.00 | 0.00 | 0.00 | 31 | 1018.6 |
| 20260506165223 | 23 | 109 | 3.2 | 8.0 | 0.00 | 0.00 | 0.00 | 33 | 1018.7 |
| 20260506164721 | 22 | 357 | 4.8 | 8.0 | 0.00 | 0.00 | 0.00 | 34 | 1018.9 |
| 20260506164217 | 22 | 313 | 3.2 | 4.8 | 0.00 | 0.00 | 0.00 | 33 | 1018.9 |
| 20260506163713 | 23 | 271 | 4.8 | 8.0 | 0.00 | 0.00 | 0.00 | 33 | 1018.9 |
| 20260506163208 | 23 | 335 | 0.0 | 3.2 | 0.00 | 0.00 | 0.00 | 31 | 1019.0 |
| 20260506162705 | 22 | 315 | 0.0 | 3.2 | 0.00 | 0.00 | 0.00 | 32 | 1018.9 |
| 20260506162202 | 21 | 303 | 4.8 | 8.0 | 0.00 | 0.00 | 0.00 | 34 | 1018.7 |